Latest Coastal Weather Observations for Centre Island

IDD60701

Issued at 3:51 am CST Sunday 29 May 2016 (issued every 10 minutes, with the page automatically refreshed every 10 minutes)

About coastal observations | Map of coastal stations | Coastal observations for NT | Marine services | Other Formats
Station Details ID: 014703 Name: CENTRE ISLAND Lat: -15.74 Lon: 136.82 Height: 12.2 m
Data from the previous 72 hours. | See also: Recent months at Centre Island
Date/Time
CST
Temp

°C
Wind Pressure Rain
since 9am
mm
Weather Cloud Vis
km
Sea
Height
m
Swell
Dir
 
Speed
knots
Gust
knots
hPa Trend Height
m
Period
s
Dir
29/03:30am 26.1 SE 9 10 1013.0 - 0.0 - - - - - - -
29/03:00am 25.9 SE 8 9 1013.0 - 0.0 - - - - - - -
29/02:30am 26.3 SSE 8 9 1013.1 - 0.0 - - - - - - -
29/02:00am 26.9 ESE 9 10 1013.1 - 0.0 - - - - - - -
29/01:30am 26.8 E 7 8 1012.9 - 0.0 - - - - - - -
29/01:00am 26.8 E 8 9 1013.1 - 0.0 - - - - - - -
29/12:30am 26.7 E 9 11 1013.2 - 0.0 - - - - - - -
29/12:00am 26.5 E 10 12 1013.3 - 0.0 - - - - - - -
 
Date/Time
CST
Temp

°C
Wind Pressure Rain
since 9am
mm
Weather Cloud Vis
km
Sea
Height
m
Swell
Dir
 
Speed
knots
Gust
knots
hPa Trend Height
m
Period
s
Dir
28/11:30pm 26.3 E 10 12 1013.3 - 0.0 - - - - - - -
28/11:00pm 26.3 ENE 9 11 1013.6 - 0.0 - - - - - - -
28/10:30pm 26.6 ENE 11 14 1013.7 - 0.0 - - - - - - -
28/10:00pm 26.6 E 10 13 1013.8 - 0.0 - - - - - - -
28/09:30pm 26.7 E 11 14 1013.7 - 0.0 - - - - - - -
28/09:00pm 26.7 E 12 14 1013.8 - 0.0 - - - - - - -
28/08:30pm 26.5 E 10 12 1013.5 - 0.0 - - - - - - -
28/08:00pm 26.5 E 11 14 1013.3 - 0.0 - - - - - - -
28/07:30pm 26.5 E 13 16 1013.1 - 0.0 - - - - - - -
28/07:00pm 26.4 E 14 15 1012.8 - 0.0 - - - - - - -
28/06:30pm 26.5 E 13 16 1012.5 - 0.0 - - - - - - -
28/06:00pm 27.0 E 14 15 1012.4 - 0.0 - - - - - - -
28/05:30pm 27.6 E 11 13 1012.3 - 0.0 - - - - - - -
28/05:00pm 28.5 E 12 13 1012.1 - 0.0 - - - - - - -
28/04:30pm 28.9 E 12 15 1012.0 - 0.0 - - - - - - -
28/04:00pm 29.2 ESE 13 16 1011.9 - 0.0 - - - - - - -
28/03:30pm 30.3 ESE 10 15 1011.9 - 0.0 - - - - - - -
28/03:00pm 30.7 E 6 8 1011.9 - 0.0 - - - - - - -
28/02:30pm 31.0 E 5 7 1012.1 - 0.0 - - - - - - -
28/02:00pm 30.8 E 5 6 1012.3 - 0.0 - - - - - - -
28/01:30pm 30.5 ENE 5 6 1012.6 - 0.0 - - - - - - -
28/01:00pm 30.6 E 6 7 1013.0 - 0.0 - - - - - - -
28/12:30pm 29.3 ESE 5 6 1013.5 - 0.0 - - - - - - -
28/12:00pm 29.0 SE 5 6 1013.9 - 0.0 - - - - - - -
28/11:30am 28.9 SSE 7 7 1014.4 - 0.0 - - - - - - -
28/11:00am 29.4 SSE 7 8 1014.9 - 0.0 - - - - - - -
28/10:30am 29.0 SSE 7 9 1015.1 - 0.0 - - - - - - -
28/10:00am 28.6 SSE 9 11 1015.5 - 0.0 - - - - - - -
28/09:30am 28.2 SSE 9 11 1015.7 - 0.0 - - - - - - -
28/09:00am 28.0 SSE 9 11 1015.6 - - - - - - - - -
28/08:30am 27.3 SSE 10 11 1015.5 - - - - - - - - -
28/08:00am 25.7 SSE 11 13 1015.0 - - - - - - - - -
28/07:30am 25.6 S 11 13 1014.5 - - - - - - - - -
28/07:00am 25.2 S 11 13 1014.1 - - - - - - - - -
28/06:30am 25.5 S 9 11 1013.8 - - - - - - - - -
28/06:00am 26.2 S 5 6 1013.3 - - - - - - - - -
28/05:30am 25.5 CALM 0 1 1013.0 - - - - - - - - -
28/05:00am 25.0 NE 2 3 1012.6 - - - - - - - - -
28/04:30am 25.1 ENE 3 5 1012.3 - - - - - - - - -
28/04:00am 25.0 ENE 4 5 1012.2 - - - - - - - - -
28/03:30am 25.0 CALM 0 0 1012.1 - - - - - - - - -
28/03:00am 25.0 N 3 3 1012.2 - - - - - - - - -
28/02:30am 25.4 NNE 3 5 1012.3 - - - - - - - - -
28/02:00am 25.5 CALM 0 1 1012.6 - - - - - - - - -
28/01:30am 26.3 NNE 4 6 1012.5 - - - - - - - - -
28/01:23am 26.3 NNE 5 6 1012.6 - - - - - - - - -
28/01:21am 26.4 NNE 5 6 1022.0 - - - - - - - - -
28/01:00am 26.5 NE 5 6 1012.6 - 0.0 - - - - - - -
28/12:30am 26.7 NNE 6 7 1012.7 - 0.0 - - - - - - -
28/12:00am 26.8 NE 7 9 1012.8 - 0.0 - - - - - - -
 
Date/Time
CST
Temp

°C
Wind Pressure Rain
since 9am
mm
Weather Cloud Vis
km
Sea
Height
m
Swell
Dir
 
Speed
knots
Gust
knots
hPa Trend Height
m
Period
s
Dir
27/11:30pm 26.9 NE 8 9 1012.9 - 0.0 - - - - - - -
27/11:00pm 27.0 NE 8 10 1012.9 - 0.0 - - - - - - -
27/10:30pm 27.0 NE 9 11 1012.7 - 0.0 - - - - - - -
27/10:00pm 27.0 NE 7 9 1012.7 - 0.0 - - - - - - -
27/09:30pm 27.1 NE 7 9 1012.7 - 0.0 - - - - - - -
27/09:00pm 27.2 NE 7 9 1012.6 - 0.0 - - - - - - -
27/08:30pm 27.2 NNE 7 10 1012.3 - 0.0 - - - - - - -
27/08:00pm 27.1 NNE 7 8 1012.2 - 0.0 - - - - - - -
27/07:30pm 27.3 NNE 7 10 1011.9 - 0.0 - - - - - - -
27/07:00pm 27.4 NNE 8 10 1011.8 - 0.0 - - - - - - -
27/06:30pm 27.6 N 7 9 1011.8 - 0.0 - - - - - - -
27/06:00pm 27.8 N 6 10 1011.6 - 0.0 - - - - - - -
27/05:30pm 28.5 NNE 9 12 1011.5 - 0.0 - - - - - - -
27/05:00pm 29.0 NNE 10 13 1011.2 - 0.0 - - - - - - -
27/04:30pm 29.2 NNE 10 14 1011.1 - 0.0 - - - - - - -
27/04:00pm 29.6 NNE 10 13 1011.1 - 0.0 - - - - - - -
27/03:30pm 29.9 NNE 11 14 1011.1 - 0.0 - - - - - - -
27/03:00pm 30.1 NE 11 14 1011.3 - 0.0 - - - - - - -
27/02:30pm 30.7 NNE 10 13 1011.4 - 0.0 - - - - - - -
27/02:00pm 31.0 NE 9 12 1011.7 - 0.0 - - - - - - -
27/01:30pm 30.9 NE 8 11 1012.2 - 0.0 - - - - - - -
27/01:00pm 30.4 NE 6 8 1012.7 - 0.0 - - - - - - -
27/12:30pm 30.0 E 5 6 1013.2 - 0.0 - - - - - - -
27/12:00pm 29.1 SE 4 5 1013.8 - 0.0 - - - - - - -
27/11:30am 28.6 SE 5 6 1014.1 - 0.0 - - - - - - -
27/11:00am 28.5 SE 5 6 1014.5 - 0.0 - - - - - - -
27/10:30am 28.3 SE 5 6 1014.7 - 0.0 - - - - - - -
27/10:00am 28.2 SE 6 7 1014.9 - 0.0 - - - - - - -
27/09:30am 27.9 SE 5 6 1014.8 - 0.0 - - - - - - -
27/09:00am 27.7 SSE 6 7 1014.8 - 0.0 - - - - - - -
27/08:30am 27.3 SSE 6 7 1014.6 - 0.0 - - - - - - -
27/08:00am 26.9 SSE 5 7 1014.4 - 0.0 - - - - - - -
27/07:30am 26.0 SE 5 6 1014.0 - 0.0 - - - - - - -
27/07:00am 25.6 ESE 6 6 1013.6 - 0.0 - - - - - - -
27/06:30am 25.5 SE 7 8 1013.4 - 0.0 - - - - - - -
27/06:00am 25.6 SE 7 8 1013.1 - 0.0 - - - - - - -
27/05:30am 25.7 SE 8 8 1012.7 - 0.0 - - - - - - -
27/05:00am 25.8 SE 8 9 1012.7 - 0.0 - - - - - - -
27/04:30am 25.8 SE 8 9 1012.6 - 0.0 - - - - - - -
27/04:00am 26.1 SSE 6 7 1012.5 - 0.0 - - - - - - -
27/03:30am 26.2 SE 5 6 1012.5 - 0.0 - - - - - - -
27/03:00am 26.3 SE 5 6 1012.6 - 0.0 - - - - - - -
27/02:30am 26.1 ESE 4 5 1012.8 - 0.0 - - - - - - -
27/02:00am 26.3 SE 4 5 1012.7 - 0.0 - - - - - - -
27/01:30am 26.3 SE 5 6 1012.9 - 0.0 - - - - - - -
27/01:00am 26.3 ESE 4 5 1013.0 - 0.0 - - - - - - -
27/12:30am 26.3 E 5 6 1012.9 - 0.0 - - - - - - -
27/12:00am 26.6 E 5 6 1012.9 - 0.0 - - - - - - -
 
Date/Time
CST
Temp

°C
Wind Pressure Rain
since 9am
mm
Weather Cloud Vis
km
Sea
Height
m
Swell
Dir
 
Speed
knots
Gust
knots
hPa Trend Height
m
Period
s
Dir
26/11:30pm 26.6 E 6 7 1013.0 - 0.0 - - - - - - -
26/11:00pm 26.6 E 5 7 1013.1 - 0.0 - - - - - - -
26/10:30pm 26.5 E 5 6 1013.0 - 0.0 - - - - - - -
26/10:00pm 26.4 E 5 6 1013.1 - 0.0 - - - - - - -
26/09:30pm 26.4 ENE 5 6 1013.0 - 0.0 - - - - - - -
26/09:00pm 26.8 NE 3 4 1013.0 - 0.0 - - - - - - -
26/08:30pm 27.0 NNE 6 7 1012.9 - 0.0 - - - - - - -
26/08:00pm 27.2 NNE 7 8 1012.5 - 0.0 - - - - - - -
26/07:30pm 27.4 NNE 8 11 1012.3 - 0.0 - - - - - - -
26/07:00pm 27.3 NNE 8 10 1011.8 - 0.0 - - - - - - -
26/06:30pm 27.4 NE 9 11 1011.5 - 0.0 - - - - - - -
26/06:00pm 27.6 NNE 10 12 1011.0 - 0.0 - - - - - - -
26/05:30pm 28.1 NNE 11 14 1010.8 - 0.0 - - - - - - -
26/05:00pm 28.6 NNE 11 14 1010.6 - 0.0 - - - - - - -
26/04:30pm 29.4 NNE 11 13 1010.6 - 0.0 - - - - - - -
26/04:00pm 29.6 NE 11 14 1010.5 - 0.0 - - - - - - -
26/03:30pm 30.9 NE 6 8 1010.5 - 0.0 - - - - - - -
26/03:00pm 31.0 NE 6 8 1010.7 - 0.0 - - - - - - -
26/02:30pm 31.3 NE 6 7 1010.9 - 0.0 - - - - - - -
26/02:00pm 30.1 NE 6 8 1011.4 - 0.0 - - - - - - -
26/01:30pm 30.7 NE 7 9 1011.9 - 0.0 - - - - - - -
26/01:00pm 29.6 NE 6 9 1012.4 - 0.0 - - - - - - -
26/12:30pm 29.1 ENE 6 7 1012.9 - 0.0 - - - - - - -
26/12:00pm 29.2 ESE 4 5 1013.4 - 0.0 - - - - - - -
26/11:30am 27.8 SE 3 5 1013.9 - 0.0 - - - - - - -
26/11:00am 28.0 SSE 4 5 1014.4 - 0.0 - - - - - - -
26/10:30am 27.9 SSE 4 5 1014.8 - 0.0 - - - - - - -
26/10:00am 27.1 S 5 6 1015.1 - 0.0 - - - - - - -
26/09:30am 26.8 S 5 7 1015.0 - 0.0 - - - - - - -
26/09:00am 26.5 S 7 9 1014.8 - 0.0 - - - - - - -
26/08:30am 26.3 SSW 8 10 1014.4 - 0.0 - - - - - - -
26/08:00am 26.1 SSW 7 8 1014.1 - 0.0 - - - - - - -
26/07:30am 25.3 SSW 6 7 1013.8 - 0.0 - - - - - - -
26/07:00am 24.9 S 6 8 1013.5 - 0.0 - - - - - - -
26/06:30am 24.7 S 5 6 1013.2 - 0.0 - - - - - - -
26/06:00am 24.8 S 5 5 1013.0 - 0.0 - - - - - - -
26/05:30am 24.9 SSE 4 5 1012.9 - 0.0 - - - - - - -
26/05:00am 25.0 SSE 6 8 1012.7 - 0.0 - - - - - - -
26/04:30am 25.0 SSE 7 8 1012.6 - 0.0 - - - - - - -
26/04:00am 25.2 S 7 8 1012.4 - 0.0 - - - - - - -

Other Formats:

Comma delimited format used in spreadsheet applications
http://www.bom.gov.au/fwo/IDD60701/IDD60701.94248.axf

JavaScript Object Notation format (JSON) in row-major order
http://www.bom.gov.au/fwo/IDD60701/IDD60701.94248.json